sensor_id;sensor_type;location;lat;lon;timestamp;P1;durP1;ratioP1;P2;durP2;ratioP2
51556;SDS011;38766;53.194;5.532;2023-04-25T00:00:25;18.48;;;3.50;;
51556;SDS011;38766;53.194;5.532;2023-04-25T00:02:51;11.43;;;2.85;;
51556;SDS011;38766;53.194;5.532;2023-04-25T00:05:16;15.68;;;3.60;;
51556;SDS011;38766;53.194;5.532;2023-04-25T00:07:42;17.90;;;3.67;;
51556;SDS011;38766;53.194;5.532;2023-04-25T00:10:08;14.55;;;3.17;;
51556;SDS011;38766;53.194;5.532;2023-04-25T00:12:36;11.15;;;3.00;;
51556;SDS011;38766;53.194;5.532;2023-04-25T00:15:02;17.70;;;3.55;;
51556;SDS011;38766;53.194;5.532;2023-04-25T00:17:28;19.75;;;4.18;;
51556;SDS011;38766;53.194;5.532;2023-04-25T00:19:54;11.05;;;2.88;;
51556;SDS011;38766;53.194;5.532;2023-04-25T00:22:20;8.90;;;2.50;;
51556;SDS011;38766;53.194;5.532;2023-04-25T00:24:46;9.35;;;2.67;;
51556;SDS011;38766;53.194;5.532;2023-04-25T00:27:12;9.15;;;2.92;;
51556;SDS011;38766;53.194;5.532;2023-04-25T00:29:37;11.45;;;3.00;;
51556;SDS011;38766;53.194;5.532;2023-04-25T00:32:03;19.40;;;4.00;;
51556;SDS011;38766;53.194;5.532;2023-04-25T00:34:29;18.17;;;3.80;;
51556;SDS011;38766;53.194;5.532;2023-04-25T00:36:55;15.40;;;3.50;;
51556;SDS011;38766;53.194;5.532;2023-04-25T00:39:21;18.70;;;3.97;;
51556;SDS011;38766;53.194;5.532;2023-04-25T00:41:47;19.65;;;3.80;;
51556;SDS011;38766;53.194;5.532;2023-04-25T00:44:13;12.18;;;3.50;;
51556;SDS011;38766;53.194;5.532;2023-04-25T00:46:42;12.27;;;3.10;;
51556;SDS011;38766;53.194;5.532;2023-04-25T00:49:08;13.27;;;3.67;;
51556;SDS011;38766;53.194;5.532;2023-04-25T00:51:38;10.68;;;3.20;;
51556;SDS011;38766;53.194;5.532;2023-04-25T00:54:04;17.02;;;4.20;;
51556;SDS011;38766;53.194;5.532;2023-04-25T00:56:30;16.50;;;2.95;;
51556;SDS011;38766;53.194;5.532;2023-04-25T00:58:55;16.08;;;3.88;;
51556;SDS011;38766;53.194;5.532;2023-04-25T01:01:21;14.95;;;4.05;;
51556;SDS011;38766;53.194;5.532;2023-04-25T01:03:47;19.67;;;3.45;;
51556;SDS011;38766;53.194;5.532;2023-04-25T01:06:15;10.70;;;2.75;;
51556;SDS011;38766;53.194;5.532;2023-04-25T01:08:41;6.30;;;2.05;;
51556;SDS011;38766;53.194;5.532;2023-04-25T01:11:07;10.57;;;2.65;;
51556;SDS011;38766;53.194;5.532;2023-04-25T01:13:33;13.40;;;2.88;;
51556;SDS011;38766;53.194;5.532;2023-04-25T01:16:00;13.48;;;3.13;;
51556;SDS011;38766;53.194;5.532;2023-04-25T01:18:25;9.10;;;3.22;;
51556;SDS011;38766;53.194;5.532;2023-04-25T01:20:52;14.52;;;3.47;;
51556;SDS011;38766;53.194;5.532;2023-04-25T01:23:18;11.60;;;2.85;;
51556;SDS011;38766;53.194;5.532;2023-04-25T01:25:45;10.20;;;2.40;;
51556;SDS011;38766;53.194;5.532;2023-04-25T01:28:12;10.93;;;2.50;;
51556;SDS011;38766;53.194;5.532;2023-04-25T01:30:38;7.78;;;2.50;;
51556;SDS011;38766;53.194;5.532;2023-04-25T01:33:05;8.80;;;3.00;;
51556;SDS011;38766;53.194;5.532;2023-04-25T01:35:33;11.20;;;3.42;;
51556;SDS011;38766;53.194;5.532;2023-04-25T01:37:59;12.85;;;3.05;;
51556;SDS011;38766;53.194;5.532;2023-04-25T01:40:25;14.70;;;2.65;;
51556;SDS011;38766;53.194;5.532;2023-04-25T01:42:52;11.95;;;3.53;;
51556;SDS011;38766;53.194;5.532;2023-04-25T01:45:18;10.88;;;3.17;;
51556;SDS011;38766;53.194;5.532;2023-04-25T01:47:44;10.82;;;3.25;;
51556;SDS011;38766;53.194;5.532;2023-04-25T01:50:14;13.23;;;2.88;;
51556;SDS011;38766;53.194;5.532;2023-04-25T01:52:40;11.80;;;2.63;;
51556;SDS011;38766;53.194;5.532;2023-04-25T01:55:06;10.63;;;2.67;;
51556;SDS011;38766;53.194;5.532;2023-04-25T01:57:32;10.35;;;2.78;;
51556;SDS011;38766;53.194;5.532;2023-04-25T01:59:58;12.18;;;3.05;;
51556;SDS011;38766;53.194;5.532;2023-04-25T02:02:26;12.93;;;3.05;;
51556;SDS011;38766;53.194;5.532;2023-04-25T02:04:51;5.35;;;2.20;;
51556;SDS011;38766;53.194;5.532;2023-04-25T02:07:17;8.45;;;2.50;;
51556;SDS011;38766;53.194;5.532;2023-04-25T02:09:43;10.93;;;2.60;;
51556;SDS011;38766;53.194;5.532;2023-04-25T02:12:09;10.65;;;2.90;;
51556;SDS011;38766;53.194;5.532;2023-04-25T02:14:36;9.55;;;2.50;;
51556;SDS011;38766;53.194;5.532;2023-04-25T02:17:01;6.47;;;2.40;;
51556;SDS011;38766;53.194;5.532;2023-04-25T02:19:27;14.82;;;2.78;;
51556;SDS011;38766;53.194;5.532;2023-04-25T02:21:53;8.63;;;2.38;;
51556;SDS011;38766;53.194;5.532;2023-04-25T02:24:19;12.70;;;3.10;;
51556;SDS011;38766;53.194;5.532;2023-04-25T02:26:45;12.90;;;2.95;;
51556;SDS011;38766;53.194;5.532;2023-04-25T02:29:11;12.50;;;2.83;;
51556;SDS011;38766;53.194;5.532;2023-04-25T02:31:37;18.73;;;3.28;;
51556;SDS011;38766;53.194;5.532;2023-04-25T02:34:03;17.08;;;3.17;;
51556;SDS011;38766;53.194;5.532;2023-04-25T02:36:29;14.68;;;3.55;;
51556;SDS011;38766;53.194;5.532;2023-04-25T02:38:59;16.35;;;3.10;;
51556;SDS011;38766;53.194;5.532;2023-04-25T02:41:25;12.23;;;3.17;;
51556;SDS011;38766;53.194;5.532;2023-04-25T02:43:51;14.38;;;2.70;;
51556;SDS011;38766;53.194;5.532;2023-04-25T02:46:16;11.93;;;2.42;;
51556;SDS011;38766;53.194;5.532;2023-04-25T02:48:42;5.32;;;2.08;;
51556;SDS011;38766;53.194;5.532;2023-04-25T02:51:08;11.32;;;2.60;;
51556;SDS011;38766;53.194;5.532;2023-04-25T02:53:34;8.13;;;2.20;;
51556;SDS011;38766;53.194;5.532;2023-04-25T02:56:00;11.43;;;2.65;;
51556;SDS011;38766;53.194;5.532;2023-04-25T02:58:26;13.32;;;2.88;;
51556;SDS011;38766;53.194;5.532;2023-04-25T03:00:52;13.63;;;2.90;;
51556;SDS011;38766;53.194;5.532;2023-04-25T03:03:18;13.50;;;3.03;;
51556;SDS011;38766;53.194;5.532;2023-04-25T03:05:46;16.17;;;3.42;;
51556;SDS011;38766;53.194;5.532;2023-04-25T03:08:15;14.18;;;3.60;;
51556;SDS011;38766;53.194;5.532;2023-04-25T03:10:41;12.32;;;2.75;;
51556;SDS011;38766;53.194;5.532;2023-04-25T03:13:07;10.63;;;2.63;;
51556;SDS011;38766;53.194;5.532;2023-04-25T03:15:34;9.60;;;2.95;;
51556;SDS011;38766;53.194;5.532;2023-04-25T03:18:01;9.82;;;2.30;;
51556;SDS011;38766;53.194;5.532;2023-04-25T03:20:26;7.80;;;2.38;;
51556;SDS011;38766;53.194;5.532;2023-04-25T03:22:52;11.65;;;2.80;;
51556;SDS011;38766;53.194;5.532;2023-04-25T03:25:18;9.38;;;2.42;;
51556;SDS011;38766;53.194;5.532;2023-04-25T03:27:43;13.45;;;2.70;;
51556;SDS011;38766;53.194;5.532;2023-04-25T03:30:09;9.80;;;2.90;;
51556;SDS011;38766;53.194;5.532;2023-04-25T03:32:36;8.18;;;3.00;;
51556;SDS011;38766;53.194;5.532;2023-04-25T03:35:01;14.93;;;3.13;;
51556;SDS011;38766;53.194;5.532;2023-04-25T03:37:28;9.20;;;2.47;;
51556;SDS011;38766;53.194;5.532;2023-04-25T03:39:53;9.57;;;2.70;;
51556;SDS011;38766;53.194;5.532;2023-04-25T03:42:19;12.15;;;2.72;;
51556;SDS011;38766;53.194;5.532;2023-04-25T03:44:47;6.85;;;2.10;;
51556;SDS011;38766;53.194;5.532;2023-04-25T03:47:14;8.65;;;2.65;;
51556;SDS011;38766;53.194;5.532;2023-04-25T03:49:39;10.57;;;2.60;;
51556;SDS011;38766;53.194;5.532;2023-04-25T03:52:05;9.90;;;2.70;;
51556;SDS011;38766;53.194;5.532;2023-04-25T03:54:31;9.13;;;2.30;;
51556;SDS011;38766;53.194;5.532;2023-04-25T03:56:56;9.80;;;2.10;;
51556;SDS011;38766;53.194;5.532;2023-04-25T03:59:22;9.43;;;2.22;;
51556;SDS011;38766;53.194;5.532;2023-04-25T04:01:47;10.32;;;2.83;;
51556;SDS011;38766;53.194;5.532;2023-04-25T04:04:13;12.52;;;2.80;;
51556;SDS011;38766;53.194;5.532;2023-04-25T04:06:39;11.10;;;2.63;;
51556;SDS011;38766;53.194;5.532;2023-04-25T04:09:04;10.20;;;2.20;;
51556;SDS011;38766;53.194;5.532;2023-04-25T04:11:34;11.23;;;2.75;;
51556;SDS011;38766;53.194;5.532;2023-04-25T04:14:01;11.57;;;2.70;;
51556;SDS011;38766;53.194;5.532;2023-04-25T04:16:27;10.73;;;2.63;;
51556;SDS011;38766;53.194;5.532;2023-04-25T04:18:53;11.57;;;2.40;;
51556;SDS011;38766;53.194;5.532;2023-04-25T04:21:18;7.47;;;2.20;;
51556;SDS011;38766;53.194;5.532;2023-04-25T04:23:44;9.00;;;2.22;;
51556;SDS011;38766;53.194;5.532;2023-04-25T04:26:11;6.80;;;1.92;;
51556;SDS011;38766;53.194;5.532;2023-04-25T04:28:37;9.43;;;2.15;;
51556;SDS011;38766;53.194;5.532;2023-04-25T04:31:03;13.45;;;2.65;;
51556;SDS011;38766;53.194;5.532;2023-04-25T04:33:29;8.00;;;1.95;;
51556;SDS011;38766;53.194;5.532;2023-04-25T04:35:56;10.90;;;2.30;;
51556;SDS011;38766;53.194;5.532;2023-04-25T04:38:22;10.82;;;1.98;;
51556;SDS011;38766;53.194;5.532;2023-04-25T04:40:47;10.63;;;2.55;;
51556;SDS011;38766;53.194;5.532;2023-04-25T04:43:13;8.27;;;2.00;;
51556;SDS011;38766;53.194;5.532;2023-04-25T04:45:39;5.47;;;1.92;;
51556;SDS011;38766;53.194;5.532;2023-04-25T04:48:05;5.85;;;2.00;;
51556;SDS011;38766;53.194;5.532;2023-04-25T04:50:31;6.90;;;2.00;;
51556;SDS011;38766;53.194;5.532;2023-04-25T04:53:01;3.38;;;1.90;;
51556;SDS011;38766;53.194;5.532;2023-04-25T04:55:27;13.15;;;2.58;;
51556;SDS011;38766;53.194;5.532;2023-04-25T04:57:53;6.03;;;1.83;;
51556;SDS011;38766;53.194;5.532;2023-04-25T05:00:18;7.80;;;2.20;;
51556;SDS011;38766;53.194;5.532;2023-04-25T05:02:45;13.38;;;3.83;;
51556;SDS011;38766;53.194;5.532;2023-04-25T05:05:11;8.95;;;2.30;;
51556;SDS011;38766;53.194;5.532;2023-04-25T05:07:36;5.88;;;2.42;;
51556;SDS011;38766;53.194;5.532;2023-04-25T05:10:02;10.77;;;2.58;;
51556;SDS011;38766;53.194;5.532;2023-04-25T05:12:28;12.18;;;3.00;;
51556;SDS011;38766;53.194;5.532;2023-04-25T05:14:55;10.38;;;2.85;;
51556;SDS011;38766;53.194;5.532;2023-04-25T05:17:21;12.27;;;2.90;;
51556;SDS011;38766;53.194;5.532;2023-04-25T05:19:46;11.60;;;2.70;;
51556;SDS011;38766;53.194;5.532;2023-04-25T05:22:12;11.18;;;2.67;;
51556;SDS011;38766;53.194;5.532;2023-04-25T05:24:37;15.98;;;4.28;;
51556;SDS011;38766;53.194;5.532;2023-04-25T05:27:03;13.90;;;2.80;;
51556;SDS011;38766;53.194;5.532;2023-04-25T05:29:29;14.77;;;2.72;;
51556;SDS011;38766;53.194;5.532;2023-04-25T05:31:54;7.97;;;2.33;;
51556;SDS011;38766;53.194;5.532;2023-04-25T05:34:20;11.57;;;2.47;;
51556;SDS011;38766;53.194;5.532;2023-04-25T05:36:45;7.22;;;2.28;;
51556;SDS011;38766;53.194;5.532;2023-04-25T05:39:13;7.50;;;2.15;;
51556;SDS011;38766;53.194;5.532;2023-04-25T05:41:42;10.10;;;2.13;;
51556;SDS011;38766;53.194;5.532;2023-04-25T05:44:08;10.90;;;2.17;;
51556;SDS011;38766;53.194;5.532;2023-04-25T05:46:34;8.15;;;1.92;;
51556;SDS011;38766;53.194;5.532;2023-04-25T05:48:59;12.23;;;2.20;;
51556;SDS011;38766;53.194;5.532;2023-04-25T05:51:25;9.85;;;2.40;;
51556;SDS011;38766;53.194;5.532;2023-04-25T05:53:51;6.78;;;2.28;;
51556;SDS011;38766;53.194;5.532;2023-04-25T05:56:16;11.15;;;2.33;;
51556;SDS011;38766;53.194;5.532;2023-04-25T05:58:42;9.63;;;2.22;;
51556;SDS011;38766;53.194;5.532;2023-04-25T06:01:08;12.90;;;2.15;;
51556;SDS011;38766;53.194;5.532;2023-04-25T06:03:34;9.30;;;2.47;;
51556;SDS011;38766;53.194;5.532;2023-04-25T06:06:00;8.82;;;2.05;;
51556;SDS011;38766;53.194;5.532;2023-04-25T06:08:25;15.05;;;2.58;;
51556;SDS011;38766;53.194;5.532;2023-04-25T06:10:51;9.18;;;2.42;;
51556;SDS011;38766;53.194;5.532;2023-04-25T06:13:17;9.90;;;2.67;;
51556;SDS011;38766;53.194;5.532;2023-04-25T06:15:42;10.00;;;2.25;;
51556;SDS011;38766;53.194;5.532;2023-04-25T06:18:08;8.32;;;2.05;;
51556;SDS011;38766;53.194;5.532;2023-04-25T06:20:34;5.40;;;1.42;;
51556;SDS011;38766;53.194;5.532;2023-04-25T06:22:59;3.67;;;1.42;;
51556;SDS011;38766;53.194;5.532;2023-04-25T06:25:25;8.07;;;1.40;;
51556;SDS011;38766;53.194;5.532;2023-04-25T06:27:51;4.55;;;1.52;;
51556;SDS011;38766;53.194;5.532;2023-04-25T06:30:16;9.65;;;1.83;;
51556;SDS011;38766;53.194;5.532;2023-04-25T06:32:47;13.40;;;2.58;;
51556;SDS011;38766;53.194;5.532;2023-04-25T06:35:12;7.22;;;2.35;;
51556;SDS011;38766;53.194;5.532;2023-04-25T06:37:38;6.63;;;2.13;;
51556;SDS011;38766;53.194;5.532;2023-04-25T06:40:04;8.88;;;2.10;;
51556;SDS011;38766;53.194;5.532;2023-04-25T06:42:31;5.28;;;2.55;;
51556;SDS011;38766;53.194;5.532;2023-04-25T06:44:56;12.20;;;3.38;;
51556;SDS011;38766;53.194;5.532;2023-04-25T06:47:22;12.25;;;1.75;;
51556;SDS011;38766;53.194;5.532;2023-04-25T06:49:47;5.13;;;1.60;;
51556;SDS011;38766;53.194;5.532;2023-04-25T06:52:13;9.35;;;1.60;;
51556;SDS011;38766;53.194;5.532;2023-04-25T06:54:39;6.78;;;1.80;;
51556;SDS011;38766;53.194;5.532;2023-04-25T06:57:04;4.28;;;1.67;;
51556;SDS011;38766;53.194;5.532;2023-04-25T06:59:30;9.80;;;1.98;;
51556;SDS011;38766;53.194;5.532;2023-04-25T07:01:55;7.60;;;1.92;;
51556;SDS011;38766;53.194;5.532;2023-04-25T07:04:21;6.57;;;1.80;;
51556;SDS011;38766;53.194;5.532;2023-04-25T07:06:47;11.18;;;2.70;;
51556;SDS011;38766;53.194;5.532;2023-04-25T07:09:13;5.10;;;1.88;;
51556;SDS011;38766;53.194;5.532;2023-04-25T07:11:38;5.80;;;1.98;;
51556;SDS011;38766;53.194;5.532;2023-04-25T07:14:04;7.32;;;1.67;;
51556;SDS011;38766;53.194;5.532;2023-04-25T07:16:30;11.68;;;2.20;;
51556;SDS011;38766;53.194;5.532;2023-04-25T07:18:55;8.27;;;1.85;;
51556;SDS011;38766;53.194;5.532;2023-04-25T07:21:21;6.88;;;2.10;;
51556;SDS011;38766;53.194;5.532;2023-04-25T07:23:47;9.93;;;2.55;;
51556;SDS011;38766;53.194;5.532;2023-04-25T07:26:12;7.88;;;1.90;;
51556;SDS011;38766;53.194;5.532;2023-04-25T07:28:38;5.45;;;2.03;;
51556;SDS011;38766;53.194;5.532;2023-04-25T07:31:04;10.07;;;2.83;;
51556;SDS011;38766;53.194;5.532;2023-04-25T07:33:30;6.18;;;2.25;;
51556;SDS011;38766;53.194;5.532;2023-04-25T07:35:56;8.57;;;1.75;;
51556;SDS011;38766;53.194;5.532;2023-04-25T07:38:22;8.02;;;1.70;;
51556;SDS011;38766;53.194;5.532;2023-04-25T07:40:48;6.80;;;1.83;;
51556;SDS011;38766;53.194;5.532;2023-04-25T07:43:14;10.15;;;4.53;;
51556;SDS011;38766;53.194;5.532;2023-04-25T07:45:44;4.85;;;2.10;;
51556;SDS011;38766;53.194;5.532;2023-04-25T07:48:11;5.72;;;1.80;;
51556;SDS011;38766;53.194;5.532;2023-04-25T07:50:41;7.40;;;2.28;;
51556;SDS011;38766;53.194;5.532;2023-04-25T07:53:06;10.75;;;2.30;;
51556;SDS011;38766;53.194;5.532;2023-04-25T07:55:32;13.35;;;1.83;;
51556;SDS011;38766;53.194;5.532;2023-04-25T07:57:58;7.40;;;2.05;;
51556;SDS011;38766;53.194;5.532;2023-04-25T08:00:23;10.88;;;2.45;;
51556;SDS011;38766;53.194;5.532;2023-04-25T08:02:49;12.32;;;2.50;;
51556;SDS011;38766;53.194;5.532;2023-04-25T08:05:16;14.57;;;2.17;;
51556;SDS011;38766;53.194;5.532;2023-04-25T08:07:42;7.93;;;1.90;;
51556;SDS011;38766;53.194;5.532;2023-04-25T08:10:08;9.10;;;2.97;;
51556;SDS011;38766;53.194;5.532;2023-04-25T08:12:34;14.00;;;2.33;;
51556;SDS011;38766;53.194;5.532;2023-04-25T08:15:00;10.23;;;2.08;;
51556;SDS011;38766;53.194;5.532;2023-04-25T08:17:26;7.75;;;2.05;;
51556;SDS011;38766;53.194;5.532;2023-04-25T08:19:51;8.23;;;1.95;;
51556;SDS011;38766;53.194;5.532;2023-04-25T08:22:17;7.38;;;2.00;;
51556;SDS011;38766;53.194;5.532;2023-04-25T08:24:43;11.20;;;2.17;;
51556;SDS011;38766;53.194;5.532;2023-04-25T08:27:08;12.30;;;1.80;;
51556;SDS011;38766;53.194;5.532;2023-04-25T08:29:34;9.85;;;2.17;;
51556;SDS011;38766;53.194;5.532;2023-04-25T08:32:00;11.18;;;3.63;;
51556;SDS011;38766;53.194;5.532;2023-04-25T08:34:26;8.25;;;2.63;;
51556;SDS011;38766;53.194;5.532;2023-04-25T08:36:52;5.07;;;1.80;;
51556;SDS011;38766;53.194;5.532;2023-04-25T08:39:17;10.77;;;2.20;;
51556;SDS011;38766;53.194;5.532;2023-04-25T08:41:43;6.80;;;1.83;;
51556;SDS011;38766;53.194;5.532;2023-04-25T08:44:10;7.20;;;2.08;;
51556;SDS011;38766;53.194;5.532;2023-04-25T08:46:39;8.50;;;1.52;;
51556;SDS011;38766;53.194;5.532;2023-04-25T08:49:06;8.77;;;1.85;;
51556;SDS011;38766;53.194;5.532;2023-04-25T08:51:34;5.20;;;1.60;;
51556;SDS011;38766;53.194;5.532;2023-04-25T08:54:10;7.82;;;1.98;;
51556;SDS011;38766;53.194;5.532;2023-04-25T08:56:47;7.32;;;1.60;;
51556;SDS011;38766;53.194;5.532;2023-04-25T08:59:13;5.50;;;2.10;;
51556;SDS011;38766;53.194;5.532;2023-04-25T09:01:40;7.60;;;2.05;;
51556;SDS011;38766;53.194;5.532;2023-04-25T09:04:06;3.03;;;1.65;;
51556;SDS011;38766;53.194;5.532;2023-04-25T09:06:32;9.60;;;2.30;;
51556;SDS011;38766;53.194;5.532;2023-04-25T09:09:06;5.07;;;1.50;;
51556;SDS011;38766;53.194;5.532;2023-04-25T09:11:32;5.43;;;1.90;;
51556;SDS011;38766;53.194;5.532;2023-04-25T09:14:12;5.35;;;2.00;;
51556;SDS011;38766;53.194;5.532;2023-04-25T09:19:24;6.55;;;2.38;;
51556;SDS011;38766;53.194;5.532;2023-04-25T09:21:54;6.97;;;1.90;;
51556;SDS011;38766;53.194;5.532;2023-04-25T09:24:30;5.25;;;1.65;;
51556;SDS011;38766;53.194;5.532;2023-04-25T09:26:57;10.10;;;2.28;;
51556;SDS011;38766;53.194;5.532;2023-04-25T09:29:33;7.30;;;1.70;;
51556;SDS011;38766;53.194;5.532;2023-04-25T09:34:49;8.88;;;2.53;;
51556;SDS011;38766;53.194;5.532;2023-04-25T09:39:51;5.97;;;2.00;;
51556;SDS011;38766;53.194;5.532;2023-04-25T09:42:24;11.02;;;2.42;;
51556;SDS011;38766;53.194;5.532;2023-04-25T09:44:52;8.75;;;2.10;;
51556;SDS011;38766;53.194;5.532;2023-04-25T09:47:19;7.07;;;2.05;;
51556;SDS011;38766;53.194;5.532;2023-04-25T09:49:47;5.45;;;2.10;;
51556;SDS011;38766;53.194;5.532;2023-04-25T09:52:14;6.75;;;2.15;;
51556;SDS011;38766;53.194;5.532;2023-04-25T09:54:45;5.47;;;2.08;;
51556;SDS011;38766;53.194;5.532;2023-04-25T09:57:13;9.45;;;1.85;;
51556;SDS011;38766;53.194;5.532;2023-04-25T09:59:44;12.13;;;2.00;;
51556;SDS011;38766;53.194;5.532;2023-04-25T10:02:17;6.93;;;2.03;;
51556;SDS011;38766;53.194;5.532;2023-04-25T10:04:47;6.53;;;1.80;;
51556;SDS011;38766;53.194;5.532;2023-04-25T10:07:16;11.48;;;2.25;;
51556;SDS011;38766;53.194;5.532;2023-04-25T10:09:44;7.60;;;1.95;;
51556;SDS011;38766;53.194;5.532;2023-04-25T10:12:12;8.68;;;2.10;;
51556;SDS011;38766;53.194;5.532;2023-04-25T10:14:38;7.18;;;1.98;;
51556;SDS011;38766;53.194;5.532;2023-04-25T10:17:05;7.85;;;2.00;;
51556;SDS011;38766;53.194;5.532;2023-04-25T10:19:32;5.55;;;1.58;;
51556;SDS011;38766;53.194;5.532;2023-04-25T10:24:28;9.20;;;2.22;;
51556;SDS011;38766;53.194;5.532;2023-04-25T10:26:55;9.60;;;2.10;;
51556;SDS011;38766;53.194;5.532;2023-04-25T10:29:22;7.72;;;1.98;;
51556;SDS011;38766;53.194;5.532;2023-04-25T10:31:49;8.18;;;2.38;;
51556;SDS011;38766;53.194;5.532;2023-04-25T10:34:15;11.27;;;2.38;;
51556;SDS011;38766;53.194;5.532;2023-04-25T10:36:42;6.70;;;2.08;;
51556;SDS011;38766;53.194;5.532;2023-04-25T10:39:08;5.93;;;1.52;;
51556;SDS011;38766;53.194;5.532;2023-04-25T10:41:47;5.53;;;1.35;;
51556;SDS011;38766;53.194;5.532;2023-04-25T10:44:17;5.40;;;1.70;;
51556;SDS011;38766;53.194;5.532;2023-04-25T10:46:44;8.13;;;2.00;;
51556;SDS011;38766;53.194;5.532;2023-04-25T10:49:10;3.67;;;1.65;;
51556;SDS011;38766;53.194;5.532;2023-04-25T10:51:58;9.75;;;2.00;;
51556;SDS011;38766;53.194;5.532;2023-04-25T10:54:46;7.07;;;2.03;;
51556;SDS011;38766;53.194;5.532;2023-04-25T10:57:26;8.43;;;2.10;;
51556;SDS011;38766;53.194;5.532;2023-04-25T10:59:58;9.52;;;2.78;;
51556;SDS011;38766;53.194;5.532;2023-04-25T11:02:28;11.45;;;2.35;;
51556;SDS011;38766;53.194;5.532;2023-04-25T11:04:54;9.52;;;2.10;;
51556;SDS011;38766;53.194;5.532;2023-04-25T11:07:27;7.50;;;2.10;;
51556;SDS011;38766;53.194;5.532;2023-04-25T11:10:01;11.68;;;2.00;;
51556;SDS011;38766;53.194;5.532;2023-04-25T11:12:31;6.75;;;1.60;;
51556;SDS011;38766;53.194;5.532;2023-04-25T11:15:03;5.95;;;2.08;;
51556;SDS011;38766;53.194;5.532;2023-04-25T11:17:31;5.95;;;1.88;;
51556;SDS011;38766;53.194;5.532;2023-04-25T11:19:56;12.45;;;2.65;;
51556;SDS011;38766;53.194;5.532;2023-04-25T11:22:22;8.10;;;2.70;;
51556;SDS011;38766;53.194;5.532;2023-04-25T11:24:48;8.88;;;2.33;;
51556;SDS011;38766;53.194;5.532;2023-04-25T11:27:15;10.98;;;2.95;;
51556;SDS011;38766;53.194;5.532;2023-04-25T11:29:41;5.50;;;1.83;;
51556;SDS011;38766;53.194;5.532;2023-04-25T11:32:06;3.30;;;1.77;;
51556;SDS011;38766;53.194;5.532;2023-04-25T11:34:33;5.53;;;1.70;;
51556;SDS011;38766;53.194;5.532;2023-04-25T11:36:59;8.43;;;1.95;;
51556;SDS011;38766;53.194;5.532;2023-04-25T11:39:27;7.20;;;1.42;;
51556;SDS011;38766;53.194;5.532;2023-04-25T11:41:53;5.65;;;1.77;;
51556;SDS011;38766;53.194;5.532;2023-04-25T11:44:20;9.15;;;1.58;;
51556;SDS011;38766;53.194;5.532;2023-04-25T11:46:46;7.28;;;2.17;;
51556;SDS011;38766;53.194;5.532;2023-04-25T11:49:13;4.25;;;1.50;;
51556;SDS011;38766;53.194;5.532;2023-04-25T11:51:43;9.20;;;2.33;;
51556;SDS011;38766;53.194;5.532;2023-04-25T11:54:11;7.72;;;2.03;;
51556;SDS011;38766;53.194;5.532;2023-04-25T11:56:37;10.20;;;1.90;;
51556;SDS011;38766;53.194;5.532;2023-04-25T11:59:09;6.07;;;1.98;;
51556;SDS011;38766;53.194;5.532;2023-04-25T12:01:35;8.80;;;1.65;;
51556;SDS011;38766;53.194;5.532;2023-04-25T12:06:44;4.53;;;1.58;;
51556;SDS011;38766;53.194;5.532;2023-04-25T12:09:12;8.70;;;2.47;;
51556;SDS011;38766;53.194;5.532;2023-04-25T12:11:44;8.43;;;2.05;;
51556;SDS011;38766;53.194;5.532;2023-04-25T12:14:11;7.60;;;1.98;;
51556;SDS011;38766;53.194;5.532;2023-04-25T12:16:41;7.32;;;1.70;;
51556;SDS011;38766;53.194;5.532;2023-04-25T12:19:07;7.82;;;1.90;;
51556;SDS011;38766;53.194;5.532;2023-04-25T12:21:33;7.47;;;1.77;;
51556;SDS011;38766;53.194;5.532;2023-04-25T12:24:12;6.57;;;2.10;;
51556;SDS011;38766;53.194;5.532;2023-04-25T12:26:46;10.32;;;2.40;;
51556;SDS011;38766;53.194;5.532;2023-04-25T12:29:24;8.20;;;1.90;;
51556;SDS011;38766;53.194;5.532;2023-04-25T12:31:52;6.38;;;2.30;;
51556;SDS011;38766;53.194;5.532;2023-04-25T12:34:19;13.52;;;2.20;;
51556;SDS011;38766;53.194;5.532;2023-04-25T12:36:45;5.65;;;1.70;;
51556;SDS011;38766;53.194;5.532;2023-04-25T12:39:17;8.60;;;1.80;;
51556;SDS011;38766;53.194;5.532;2023-04-25T12:41:47;5.63;;;2.13;;
51556;SDS011;38766;53.194;5.532;2023-04-25T12:44:13;7.82;;;1.95;;
51556;SDS011;38766;53.194;5.532;2023-04-25T12:46:39;7.43;;;2.13;;
51556;SDS011;38766;53.194;5.532;2023-04-25T12:49:06;5.07;;;1.70;;
51556;SDS011;38766;53.194;5.532;2023-04-25T12:51:33;6.80;;;1.83;;
51556;SDS011;38766;53.194;5.532;2023-04-25T12:54:00;10.93;;;2.22;;
51556;SDS011;38766;53.194;5.532;2023-04-25T12:56:27;13.60;;;2.55;;
51556;SDS011;38766;53.194;5.532;2023-04-25T12:58:53;5.88;;;1.85;;
51556;SDS011;38766;53.194;5.532;2023-04-25T13:01:22;12.88;;;2.22;;
51556;SDS011;38766;53.194;5.532;2023-04-25T13:03:49;8.57;;;2.17;;
51556;SDS011;38766;53.194;5.532;2023-04-25T13:06:16;10.77;;;2.90;;
51556;SDS011;38766;53.194;5.532;2023-04-25T13:08:42;6.55;;;1.58;;
51556;SDS011;38766;53.194;5.532;2023-04-25T13:11:08;10.80;;;2.75;;
51556;SDS011;38766;53.194;5.532;2023-04-25T13:13:34;4.85;;;1.77;;
51556;SDS011;38766;53.194;5.532;2023-04-25T13:16:00;9.00;;;2.20;;
51556;SDS011;38766;53.194;5.532;2023-04-25T13:18:30;6.25;;;1.83;;
51556;SDS011;38766;53.194;5.532;2023-04-25T13:20:56;9.45;;;2.38;;
51556;SDS011;38766;53.194;5.532;2023-04-25T13:23:24;8.27;;;2.20;;
51556;SDS011;38766;53.194;5.532;2023-04-25T13:25:51;9.20;;;2.10;;
51556;SDS011;38766;53.194;5.532;2023-04-25T13:28:17;6.88;;;1.83;;
51556;SDS011;38766;53.194;5.532;2023-04-25T13:30:42;7.20;;;1.98;;
51556;SDS011;38766;53.194;5.532;2023-04-25T13:33:08;9.38;;;2.30;;
51556;SDS011;38766;53.194;5.532;2023-04-25T13:35:35;7.50;;;2.50;;
51556;SDS011;38766;53.194;5.532;2023-04-25T13:38:02;7.18;;;2.17;;
51556;SDS011;38766;53.194;5.532;2023-04-25T13:40:28;8.00;;;2.00;;
51556;SDS011;38766;53.194;5.532;2023-04-25T13:42:54;7.53;;;2.15;;
51556;SDS011;38766;53.194;5.532;2023-04-25T13:45:20;5.20;;;1.88;;
51556;SDS011;38766;53.194;5.532;2023-04-25T13:47:46;5.60;;;2.20;;
51556;SDS011;38766;53.194;5.532;2023-04-25T13:50:12;9.65;;;1.50;;
51556;SDS011;38766;53.194;5.532;2023-04-25T13:52:38;6.32;;;1.70;;
51556;SDS011;38766;53.194;5.532;2023-04-25T13:55:05;7.78;;;1.73;;
51556;SDS011;38766;53.194;5.532;2023-04-25T13:57:32;6.80;;;1.40;;
51556;SDS011;38766;53.194;5.532;2023-04-25T13:59:58;7.32;;;1.50;;
51556;SDS011;38766;53.194;5.532;2023-04-25T14:02:24;9.45;;;2.03;;
51556;SDS011;38766;53.194;5.532;2023-04-25T14:04:51;6.20;;;1.85;;
51556;SDS011;38766;53.194;5.532;2023-04-25T14:07:16;6.60;;;2.35;;
51556;SDS011;38766;53.194;5.532;2023-04-25T14:09:44;5.72;;;2.58;;
51556;SDS011;38766;53.194;5.532;2023-04-25T14:12:09;7.97;;;2.45;;
51556;SDS011;38766;53.194;5.532;2023-04-25T14:14:36;6.72;;;1.92;;
51556;SDS011;38766;53.194;5.532;2023-04-25T14:17:03;11.23;;;2.08;;
51556;SDS011;38766;53.194;5.532;2023-04-25T14:19:28;8.77;;;1.83;;
51556;SDS011;38766;53.194;5.532;2023-04-25T14:21:55;4.05;;;1.63;;
51556;SDS011;38766;53.194;5.532;2023-04-25T14:24:21;4.55;;;1.70;;
51556;SDS011;38766;53.194;5.532;2023-04-25T14:26:46;7.25;;;2.03;;
51556;SDS011;38766;53.194;5.532;2023-04-25T14:29:12;7.93;;;1.85;;
51556;SDS011;38766;53.194;5.532;2023-04-25T14:31:38;4.28;;;1.95;;
51556;SDS011;38766;53.194;5.532;2023-04-25T14:34:05;5.20;;;2.17;;
51556;SDS011;38766;53.194;5.532;2023-04-25T14:36:31;10.50;;;2.05;;
51556;SDS011;38766;53.194;5.532;2023-04-25T14:38:57;12.52;;;2.35;;
51556;SDS011;38766;53.194;5.532;2023-04-25T14:41:23;10.10;;;2.80;;
51556;SDS011;38766;53.194;5.532;2023-04-25T14:43:50;8.38;;;2.53;;
51556;SDS011;38766;53.194;5.532;2023-04-25T14:46:15;8.57;;;2.55;;
51556;SDS011;38766;53.194;5.532;2023-04-25T14:48:41;6.07;;;2.10;;
51556;SDS011;38766;53.194;5.532;2023-04-25T14:51:07;6.78;;;2.10;;
51556;SDS011;38766;53.194;5.532;2023-04-25T14:53:34;9.90;;;2.00;;